Midfield, Texas
Current Conditions -  °F | °C
As of 9:53 PM on Wednesday 28 Jan 2015 (Local Time) from KPSX Reporting Station
Clear Clear  
Wind Chill: 57°   Ceiling: Unl
Heat Index: 57°   Visibility: 10mi
Dew Point: 56°   Wind: 7mph
Humidity: 96%   Direction: 150°SSE
Pressure: 30.15"   Gusts: NA
Location:  28.94°N, 96.21°W
Report Text: KPSX 290353Z AUTO 15006KT 10SM CLR 14/13 A3015 RMK AO2 SLP209 T01390133
Loading
Personal Weather Stations






























Interactive Weather Map New forecast layout! Learn more

10-Day Weather Forecast

Advertisements
Track Severe Weather on mobile